TimeEDT,TemperatureF,Dew PointF,Humidity,Sea Level PressureIn,VisibilityMPH,Wind Direction,Wind SpeedMPH,Gust SpeedMPH,PrecipitationIn,Events,Conditions,WindDirDegrees,DateUTC
1:52 AM,35.1,25.0,67,30.03,10.0,West,4.6,-,N/A,,Clear,280,2012-11-03 05:52:00
2:52 AM,34.0,25.0,70,30.02,10.0,West,4.6,-,N/A,,Clear,260,2012-11-03 06:52:00
3:52 AM,33.1,24.1,70,30.03,10.0,West,4.6,-,N/A,,Clear,270,2012-11-03 07:52:00
4:52 AM,32.0,24.1,73,30.05,10.0,West,4.6,-,N/A,,Clear,270,2012-11-03 08:52:00
5:52 AM,32.0,24.1,73,30.06,10.0,Calm,Calm,-,N/A,,Clear,0,2012-11-03 09:52:00
6:52 AM,30.0,24.1,79,30.09,10.0,WSW,5.8,-,N/A,,Clear,250,2012-11-03 10:52:00
7:52 AM,30.9,25.0,79,30.12,10.0,West,5.8,-,N/A,,Clear,270,2012-11-03 11:52:00
8:52 AM,32.0,26.1,79,30.13,10.0,West,6.9,-,N/A,,Clear,270,2012-11-03 12:52:00
9:52 AM,35.1,26.1,70,30.14,10.0,WNW,5.8,-,N/A,,Clear,300,2012-11-03 13:52:00
10:52 AM,37.9,27.0,65,30.13,10.0,Calm,Calm,-,N/A,,Partly Cloudy,0,2012-11-03 14:52:00
11:44 AM,39.2,26.6,61,30.11,10.0,WNW,10.4,-,N/A,,Partly Cloudy,300,2012-11-03 15:44:00
11:52 AM,41.0,27.0,57,30.12,10.0,West,8.1,-,N/A,,Clear,280,2012-11-03 15:52:00
12:52 PM,45.0,28.0,52,30.10,10.0,West,9.2,-,N/A,,Clear,280,2012-11-03 16:52:00
1:52 PM,46.0,27.0,47,30.09,10.0,West,6.9,-,N/A,,Clear,270,2012-11-03 17:52:00
2:52 PM,48.0,25.0,41,30.06,10.0,NW,5.8,-,N/A,,Mostly Cloudy,310,2012-11-03 18:52:00
3:52 PM,48.9,26.1,41,30.06,10.0,WNW,6.9,-,N/A,,Scattered Clouds,300,2012-11-03 19:52:00
4:52 PM,48.0,27.0,44,30.06,10.0,Calm,Calm,-,N/A,,Overcast,0,2012-11-03 20:52:00
5:52 PM,46.9,28.0,48,30.06,10.0,WNW,3.5,-,N/A,,Overcast,300,2012-11-03 21:52:00
6:52 PM,44.1,28.0,53,30.06,10.0,Calm,Calm,-,N/A,,Scattered Clouds,0,2012-11-03 22:52:00
7:39 PM,46.4,28.4,50,30.04,10.0,NNE,3.5,-,N/A,,Overcast,20,2012-11-03 23:39:00
7:52 PM,44.1,28.9,55,30.05,10.0,ESE,3.5,-,N/A,,Overcast,110,2012-11-03 23:52:00
8:52 PM,44.1,28.9,55,30.07,10.0,NE,8.1,-,N/A,,Overcast,40,2012-11-04 00:52:00
9:52 PM,39.9,34.0,79,30.10,10.0,South,5.8,-,0.03,Rain,Light Rain,170,2012-11-04 01:52:00
10:52 PM,44.1,35.1,71,30.03,10.0,Variable,3.5,-,0.06,,Overcast,0,2012-11-04 02:52:00
11:52 PM,39.9,36.0,86,30.05,7.0,Calm,Calm,-,0.04,Rain,Rain,0,2012-11-04 03:52:00